sensor_id;sensor_type;location;lat;lon;timestamp;P1;durP1;ratioP1;P2;durP2;ratioP2
76259;SDS011;65076;52.362;6.588;2022-11-20T00:01:31;17.42;;;9.38;;
76259;SDS011;65076;52.362;6.588;2022-11-20T00:04:00;18.50;;;9.57;;
76259;SDS011;65076;52.362;6.588;2022-11-20T00:06:29;20.75;;;8.98;;
76259;SDS011;65076;52.362;6.588;2022-11-20T00:09:01;16.90;;;9.00;;
76259;SDS011;65076;52.362;6.588;2022-11-20T00:11:29;17.95;;;9.27;;
76259;SDS011;65076;52.362;6.588;2022-11-20T00:13:59;18.52;;;10.02;;
76259;SDS011;65076;52.362;6.588;2022-11-20T00:16:30;17.30;;;8.90;;
76259;SDS011;65076;52.362;6.588;2022-11-20T00:18:59;17.42;;;8.82;;
76259;SDS011;65076;52.362;6.588;2022-11-20T00:21:29;20.50;;;9.57;;
76259;SDS011;65076;52.362;6.588;2022-11-20T00:23:57;18.63;;;9.15;;
76259;SDS011;65076;52.362;6.588;2022-11-20T00:26:26;15.52;;;9.15;;
76259;SDS011;65076;52.362;6.588;2022-11-20T00:28:56;18.23;;;10.00;;
76259;SDS011;65076;52.362;6.588;2022-11-20T00:31:26;20.92;;;10.15;;
76259;SDS011;65076;52.362;6.588;2022-11-20T00:33:55;19.48;;;10.57;;
76259;SDS011;65076;52.362;6.588;2022-11-20T00:36:26;30.15;;;12.70;;
76259;SDS011;65076;52.362;6.588;2022-11-20T00:38:56;46.20;;;19.38;;
76259;SDS011;65076;52.362;6.588;2022-11-20T00:41:26;40.63;;;16.33;;
76259;SDS011;65076;52.362;6.588;2022-11-20T00:43:55;34.90;;;15.65;;
76259;SDS011;65076;52.362;6.588;2022-11-20T00:46:24;27.13;;;12.75;;
76259;SDS011;65076;52.362;6.588;2022-11-20T00:48:54;20.10;;;10.32;;
76259;SDS011;65076;52.362;6.588;2022-11-20T00:51:22;17.48;;;9.90;;
76259;SDS011;65076;52.362;6.588;2022-11-20T00:53:54;19.23;;;10.13;;
76259;SDS011;65076;52.362;6.588;2022-11-20T00:56:24;24.90;;;10.98;;
76259;SDS011;65076;52.362;6.588;2022-11-20T00:58:51;21.13;;;11.63;;
76259;SDS011;65076;52.362;6.588;2022-11-20T01:01:23;25.90;;;11.88;;
76259;SDS011;65076;52.362;6.588;2022-11-20T01:03:53;25.33;;;12.40;;
76259;SDS011;65076;52.362;6.588;2022-11-20T01:06:23;20.52;;;11.48;;
76259;SDS011;65076;52.362;6.588;2022-11-20T01:08:54;18.73;;;9.48;;
76259;SDS011;65076;52.362;6.588;2022-11-20T01:11:25;18.42;;;10.13;;
76259;SDS011;65076;52.362;6.588;2022-11-20T01:13:55;21.45;;;10.20;;
76259;SDS011;65076;52.362;6.588;2022-11-20T01:16:26;18.63;;;9.00;;
76259;SDS011;65076;52.362;6.588;2022-11-20T01:18:58;18.75;;;9.82;;
76259;SDS011;65076;52.362;6.588;2022-11-20T01:21:30;17.15;;;8.77;;
76259;SDS011;65076;52.362;6.588;2022-11-20T01:24:02;17.88;;;9.60;;
76259;SDS011;65076;52.362;6.588;2022-11-20T01:26:34;18.50;;;8.98;;
76259;SDS011;65076;52.362;6.588;2022-11-20T01:29:04;15.15;;;9.18;;
76259;SDS011;65076;52.362;6.588;2022-11-20T01:31:34;18.98;;;9.25;;
76259;SDS011;65076;52.362;6.588;2022-11-20T01:34:04;19.38;;;8.43;;
76259;SDS011;65076;52.362;6.588;2022-11-20T01:36:38;17.38;;;9.13;;
76259;SDS011;65076;52.362;6.588;2022-11-20T01:39:09;16.90;;;9.02;;
76259;SDS011;65076;52.362;6.588;2022-11-20T01:41:40;18.65;;;9.40;;
76259;SDS011;65076;52.362;6.588;2022-11-20T01:44:49;19.98;;;10.93;;
76259;SDS011;65076;52.362;6.588;2022-11-20T01:47:22;19.50;;;10.50;;
76259;SDS011;65076;52.362;6.588;2022-11-20T01:49:58;21.38;;;9.85;;
76259;SDS011;65076;52.362;6.588;2022-11-20T01:52:36;19.85;;;10.32;;
76259;SDS011;65076;52.362;6.588;2022-11-20T01:55:10;20.00;;;10.90;;
76259;SDS011;65076;52.362;6.588;2022-11-20T01:57:45;21.65;;;10.75;;
76259;SDS011;65076;52.362;6.588;2022-11-20T02:00:16;20.60;;;9.45;;
76259;SDS011;65076;52.362;6.588;2022-11-20T02:02:48;21.30;;;10.20;;
76259;SDS011;65076;52.362;6.588;2022-11-20T02:05:22;15.88;;;9.93;;
76259;SDS011;65076;52.362;6.588;2022-11-20T02:07:57;23.33;;;11.23;;
76259;SDS011;65076;52.362;6.588;2022-11-20T02:12:56;19.20;;;10.10;;
76259;SDS011;65076;52.362;6.588;2022-11-20T02:15:42;19.95;;;10.65;;
76259;SDS011;65076;52.362;6.588;2022-11-20T02:18:13;18.83;;;9.52;;
76259;SDS011;65076;52.362;6.588;2022-11-20T02:20:45;18.98;;;9.25;;
76259;SDS011;65076;52.362;6.588;2022-11-20T02:23:20;15.30;;;8.93;;
76259;SDS011;65076;52.362;6.588;2022-11-20T02:26:01;20.02;;;9.93;;
76259;SDS011;65076;52.362;6.588;2022-11-20T02:28:34;17.58;;;8.32;;
76259;SDS011;65076;52.362;6.588;2022-11-20T02:31:02;14.32;;;8.05;;
76259;SDS011;65076;52.362;6.588;2022-11-20T02:33:31;14.95;;;8.38;;
76259;SDS011;65076;52.362;6.588;2022-11-20T02:35:59;16.27;;;8.10;;
76259;SDS011;65076;52.362;6.588;2022-11-20T02:38:26;18.13;;;8.52;;
76259;SDS011;65076;52.362;6.588;2022-11-20T02:40:54;18.10;;;9.10;;
76259;SDS011;65076;52.362;6.588;2022-11-20T02:43:24;15.50;;;8.77;;
76259;SDS011;65076;52.362;6.588;2022-11-20T02:45:51;18.70;;;9.68;;
76259;SDS011;65076;52.362;6.588;2022-11-20T02:48:19;16.10;;;8.98;;
76259;SDS011;65076;52.362;6.588;2022-11-20T02:50:50;14.80;;;7.72;;
76259;SDS011;65076;52.362;6.588;2022-11-20T02:53:18;17.33;;;7.93;;
76259;SDS011;65076;52.362;6.588;2022-11-20T02:55:46;17.48;;;8.77;;
76259;SDS011;65076;52.362;6.588;2022-11-20T02:58:13;19.70;;;8.82;;
76259;SDS011;65076;52.362;6.588;2022-11-20T03:00:43;16.33;;;8.45;;
76259;SDS011;65076;52.362;6.588;2022-11-20T03:03:10;16.42;;;8.32;;
76259;SDS011;65076;52.362;6.588;2022-11-20T03:05:38;16.77;;;8.82;;
76259;SDS011;65076;52.362;6.588;2022-11-20T03:08:06;16.00;;;8.35;;
76259;SDS011;65076;52.362;6.588;2022-11-20T03:10:34;14.70;;;8.27;;
76259;SDS011;65076;52.362;6.588;2022-11-20T03:13:02;14.40;;;7.75;;
76259;SDS011;65076;52.362;6.588;2022-11-20T03:15:30;15.70;;;8.57;;
76259;SDS011;65076;52.362;6.588;2022-11-20T03:17:59;19.38;;;8.65;;
76259;SDS011;65076;52.362;6.588;2022-11-20T03:20:26;13.70;;;8.35;;
76259;SDS011;65076;52.362;6.588;2022-11-20T03:22:54;14.45;;;7.38;;
76259;SDS011;65076;52.362;6.588;2022-11-20T03:25:22;13.80;;;7.35;;
76259;SDS011;65076;52.362;6.588;2022-11-20T03:27:50;16.85;;;7.45;;
76259;SDS011;65076;52.362;6.588;2022-11-20T03:30:18;12.60;;;7.47;;
76259;SDS011;65076;52.362;6.588;2022-11-20T03:32:48;18.42;;;8.45;;
76259;SDS011;65076;52.362;6.588;2022-11-20T03:35:17;16.20;;;7.95;;
76259;SDS011;65076;52.362;6.588;2022-11-20T03:37:45;13.88;;;7.72;;
76259;SDS011;65076;52.362;6.588;2022-11-20T03:40:13;15.13;;;7.53;;
76259;SDS011;65076;52.362;6.588;2022-11-20T03:42:41;14.02;;;8.38;;
76259;SDS011;65076;52.362;6.588;2022-11-20T03:45:15;16.17;;;8.60;;
76259;SDS011;65076;52.362;6.588;2022-11-20T03:47:45;15.65;;;7.90;;
76259;SDS011;65076;52.362;6.588;2022-11-20T03:50:13;12.80;;;7.43;;
76259;SDS011;65076;52.362;6.588;2022-11-20T03:52:42;16.65;;;7.80;;
76259;SDS011;65076;52.362;6.588;2022-11-20T03:55:10;14.18;;;8.30;;
76259;SDS011;65076;52.362;6.588;2022-11-20T03:57:38;14.82;;;7.65;;
76259;SDS011;65076;52.362;6.588;2022-11-20T04:00:06;15.60;;;8.15;;
76259;SDS011;65076;52.362;6.588;2022-11-20T04:02:35;17.60;;;8.50;;
76259;SDS011;65076;52.362;6.588;2022-11-20T04:05:03;14.77;;;8.32;;
76259;SDS011;65076;52.362;6.588;2022-11-20T04:07:33;14.38;;;7.85;;
76259;SDS011;65076;52.362;6.588;2022-11-20T04:10:03;13.88;;;7.38;;
76259;SDS011;65076;52.362;6.588;2022-11-20T04:12:32;14.25;;;7.72;;
76259;SDS011;65076;52.362;6.588;2022-11-20T04:15:00;12.38;;;7.35;;
76259;SDS011;65076;52.362;6.588;2022-11-20T04:17:28;14.75;;;8.02;;
76259;SDS011;65076;52.362;6.588;2022-11-20T04:19:56;14.48;;;7.50;;
76259;SDS011;65076;52.362;6.588;2022-11-20T04:22:24;12.10;;;7.20;;
76259;SDS011;65076;52.362;6.588;2022-11-20T04:24:51;16.55;;;8.52;;
76259;SDS011;65076;52.362;6.588;2022-11-20T04:27:21;17.05;;;9.10;;
76259;SDS011;65076;52.362;6.588;2022-11-20T04:29:49;16.10;;;7.85;;
76259;SDS011;65076;52.362;6.588;2022-11-20T04:32:16;11.98;;;7.63;;
76259;SDS011;65076;52.362;6.588;2022-11-20T04:34:44;14.98;;;8.50;;
76259;SDS011;65076;52.362;6.588;2022-11-20T04:37:12;14.75;;;7.85;;
76259;SDS011;65076;52.362;6.588;2022-11-20T04:39:40;13.38;;;7.85;;
76259;SDS011;65076;52.362;6.588;2022-11-20T04:42:08;15.60;;;8.18;;
76259;SDS011;65076;52.362;6.588;2022-11-20T04:44:57;17.17;;;9.88;;
76259;SDS011;65076;52.362;6.588;2022-11-20T04:47:25;16.05;;;8.27;;
76259;SDS011;65076;52.362;6.588;2022-11-20T04:49:53;18.27;;;9.02;;
76259;SDS011;65076;52.362;6.588;2022-11-20T04:52:21;16.00;;;8.30;;
76259;SDS011;65076;52.362;6.588;2022-11-20T04:54:48;18.83;;;8.77;;
76259;SDS011;65076;52.362;6.588;2022-11-20T04:57:18;16.30;;;7.65;;
76259;SDS011;65076;52.362;6.588;2022-11-20T04:59:47;15.38;;;8.50;;
76259;SDS011;65076;52.362;6.588;2022-11-20T05:02:17;14.68;;;7.47;;
76259;SDS011;65076;52.362;6.588;2022-11-20T05:04:44;17.10;;;8.85;;
76259;SDS011;65076;52.362;6.588;2022-11-20T05:07:12;19.00;;;8.27;;
76259;SDS011;65076;52.362;6.588;2022-11-20T05:09:40;15.75;;;8.88;;
76259;SDS011;65076;52.362;6.588;2022-11-20T05:12:08;16.83;;;8.48;;
76259;SDS011;65076;52.362;6.588;2022-11-20T05:14:36;18.48;;;9.15;;
76259;SDS011;65076;52.362;6.588;2022-11-20T05:17:04;15.80;;;8.25;;
76259;SDS011;65076;52.362;6.588;2022-11-20T05:19:33;19.23;;;9.45;;
76259;SDS011;65076;52.362;6.588;2022-11-20T05:22:01;18.80;;;9.90;;
76259;SDS011;65076;52.362;6.588;2022-11-20T05:24:29;18.00;;;10.10;;
76259;SDS011;65076;52.362;6.588;2022-11-20T05:26:57;19.25;;;9.48;;
76259;SDS011;65076;52.362;6.588;2022-11-20T05:29:25;14.10;;;8.30;;
76259;SDS011;65076;52.362;6.588;2022-11-20T05:31:53;18.02;;;9.50;;
76259;SDS011;65076;52.362;6.588;2022-11-20T05:34:21;20.92;;;10.60;;
76259;SDS011;65076;52.362;6.588;2022-11-20T05:36:50;19.20;;;9.32;;
76259;SDS011;65076;52.362;6.588;2022-11-20T05:39:18;18.05;;;10.15;;
76259;SDS011;65076;52.362;6.588;2022-11-20T05:41:46;17.65;;;8.98;;
76259;SDS011;65076;52.362;6.588;2022-11-20T05:44:34;20.33;;;8.82;;
76259;SDS011;65076;52.362;6.588;2022-11-20T05:47:02;17.13;;;7.90;;
76259;SDS011;65076;52.362;6.588;2022-11-20T05:49:30;14.68;;;7.75;;
76259;SDS011;65076;52.362;6.588;2022-11-20T05:51:59;17.92;;;8.98;;
76259;SDS011;65076;52.362;6.588;2022-11-20T05:54:27;17.35;;;8.30;;
76259;SDS011;65076;52.362;6.588;2022-11-20T05:56:55;17.00;;;8.25;;
76259;SDS011;65076;52.362;6.588;2022-11-20T05:59:23;16.75;;;8.10;;
76259;SDS011;65076;52.362;6.588;2022-11-20T06:01:51;15.43;;;7.88;;
76259;SDS011;65076;52.362;6.588;2022-11-20T06:04:19;16.85;;;8.48;;
76259;SDS011;65076;52.362;6.588;2022-11-20T06:06:46;14.98;;;7.80;;
76259;SDS011;65076;52.362;6.588;2022-11-20T06:09:16;16.63;;;8.98;;
76259;SDS011;65076;52.362;6.588;2022-11-20T06:11:44;12.75;;;7.75;;
76259;SDS011;65076;52.362;6.588;2022-11-20T06:14:12;18.77;;;9.18;;
76259;SDS011;65076;52.362;6.588;2022-11-20T06:16:39;15.77;;;7.93;;
76259;SDS011;65076;52.362;6.588;2022-11-20T06:19:07;17.38;;;9.27;;
76259;SDS011;65076;52.362;6.588;2022-11-20T06:21:35;18.92;;;10.15;;
76259;SDS011;65076;52.362;6.588;2022-11-20T06:24:03;17.30;;;8.60;;
76259;SDS011;65076;52.362;6.588;2022-11-20T06:26:33;18.55;;;8.98;;
76259;SDS011;65076;52.362;6.588;2022-11-20T06:29:00;17.25;;;7.93;;
76259;SDS011;65076;52.362;6.588;2022-11-20T06:31:28;16.55;;;9.00;;
76259;SDS011;65076;52.362;6.588;2022-11-20T06:33:58;16.63;;;8.40;;
76259;SDS011;65076;52.362;6.588;2022-11-20T06:36:26;15.70;;;8.70;;
76259;SDS011;65076;52.362;6.588;2022-11-20T06:38:54;17.58;;;8.73;;
76259;SDS011;65076;52.362;6.588;2022-11-20T06:41:23;16.08;;;9.60;;
76259;SDS011;65076;52.362;6.588;2022-11-20T06:43:52;19.90;;;8.32;;
76259;SDS011;65076;52.362;6.588;2022-11-20T06:46:20;16.70;;;8.95;;
76259;SDS011;65076;52.362;6.588;2022-11-20T06:48:48;17.27;;;9.23;;
76259;SDS011;65076;52.362;6.588;2022-11-20T06:51:17;17.48;;;8.57;;
76259;SDS011;65076;52.362;6.588;2022-11-20T06:53:45;17.23;;;8.65;;
76259;SDS011;65076;52.362;6.588;2022-11-20T06:56:13;19.35;;;8.57;;
76259;SDS011;65076;52.362;6.588;2022-11-20T06:58:41;14.68;;;8.35;;
76259;SDS011;65076;52.362;6.588;2022-11-20T07:01:11;15.63;;;8.95;;
76259;SDS011;65076;52.362;6.588;2022-11-20T07:03:41;20.40;;;9.30;;
76259;SDS011;65076;52.362;6.588;2022-11-20T07:06:13;16.33;;;8.05;;
76259;SDS011;65076;52.362;6.588;2022-11-20T07:08:40;16.15;;;8.55;;
76259;SDS011;65076;52.362;6.588;2022-11-20T07:11:10;20.20;;;10.23;;
76259;SDS011;65076;52.362;6.588;2022-11-20T07:13:39;15.45;;;9.00;;
76259;SDS011;65076;52.362;6.588;2022-11-20T07:16:07;17.15;;;8.45;;
76259;SDS011;65076;52.362;6.588;2022-11-20T07:18:37;18.02;;;9.27;;
76259;SDS011;65076;52.362;6.588;2022-11-20T07:21:07;20.42;;;9.43;;
76259;SDS011;65076;52.362;6.588;2022-11-20T07:23:37;16.23;;;9.15;;
76259;SDS011;65076;52.362;6.588;2022-11-20T07:26:05;16.40;;;8.98;;
76259;SDS011;65076;52.362;6.588;2022-11-20T07:28:35;15.60;;;8.30;;
76259;SDS011;65076;52.362;6.588;2022-11-20T07:31:04;16.63;;;8.82;;
76259;SDS011;65076;52.362;6.588;2022-11-20T07:33:33;20.60;;;9.73;;
76259;SDS011;65076;52.362;6.588;2022-11-20T07:36:03;18.20;;;9.30;;
76259;SDS011;65076;52.362;6.588;2022-11-20T07:38:32;12.93;;;7.53;;
76259;SDS011;65076;52.362;6.588;2022-11-20T07:40:59;16.08;;;7.78;;
76259;SDS011;65076;52.362;6.588;2022-11-20T07:43:28;15.82;;;8.85;;
76259;SDS011;65076;52.362;6.588;2022-11-20T07:45:56;17.48;;;9.77;;
76259;SDS011;65076;52.362;6.588;2022-11-20T07:48:26;15.57;;;8.45;;
76259;SDS011;65076;52.362;6.588;2022-11-20T07:50:54;17.42;;;9.68;;
76259;SDS011;65076;52.362;6.588;2022-11-20T07:53:24;15.98;;;9.05;;
76259;SDS011;65076;52.362;6.588;2022-11-20T07:55:52;16.80;;;10.98;;
76259;SDS011;65076;52.362;6.588;2022-11-20T07:58:20;15.77;;;9.52;;
76259;SDS011;65076;52.362;6.588;2022-11-20T08:00:49;19.45;;;10.00;;
76259;SDS011;65076;52.362;6.588;2022-11-20T08:03:17;16.48;;;9.98;;
76259;SDS011;65076;52.362;6.588;2022-11-20T08:05:50;15.50;;;10.25;;
76259;SDS011;65076;52.362;6.588;2022-11-20T08:08:18;16.90;;;9.35;;
76259;SDS011;65076;52.362;6.588;2022-11-20T08:10:48;13.35;;;8.63;;
76259;SDS011;65076;52.362;6.588;2022-11-20T08:13:16;15.63;;;9.32;;
76259;SDS011;65076;52.362;6.588;2022-11-20T08:16:01;16.13;;;9.98;;
76259;SDS011;65076;52.362;6.588;2022-11-20T08:18:29;17.25;;;9.88;;
76259;SDS011;65076;52.362;6.588;2022-11-20T08:21:01;15.90;;;9.68;;
76259;SDS011;65076;52.362;6.588;2022-11-20T08:23:30;16.05;;;10.27;;
76259;SDS011;65076;52.362;6.588;2022-11-20T08:26:00;16.80;;;9.13;;
76259;SDS011;65076;52.362;6.588;2022-11-20T08:28:28;17.08;;;9.38;;
76259;SDS011;65076;52.362;6.588;2022-11-20T08:30:57;14.40;;;8.18;;
76259;SDS011;65076;52.362;6.588;2022-11-20T08:33:26;13.93;;;9.57;;
76259;SDS011;65076;52.362;6.588;2022-11-20T08:35:57;12.82;;;9.68;;
76259;SDS011;65076;52.362;6.588;2022-11-20T08:38:27;14.90;;;9.05;;
76259;SDS011;65076;52.362;6.588;2022-11-20T08:40:55;14.82;;;9.13;;
76259;SDS011;65076;52.362;6.588;2022-11-20T08:43:43;13.95;;;9.07;;
76259;SDS011;65076;52.362;6.588;2022-11-20T08:46:12;15.02;;;9.13;;
76259;SDS011;65076;52.362;6.588;2022-11-20T08:48:40;12.82;;;8.30;;
76259;SDS011;65076;52.362;6.588;2022-11-20T08:51:08;14.85;;;9.00;;
76259;SDS011;65076;52.362;6.588;2022-11-20T08:53:37;15.07;;;8.07;;
76259;SDS011;65076;52.362;6.588;2022-11-20T08:56:06;12.68;;;8.55;;
76259;SDS011;65076;52.362;6.588;2022-11-20T08:58:35;13.65;;;8.40;;
76259;SDS011;65076;52.362;6.588;2022-11-20T09:01:25;12.60;;;9.18;;
76259;SDS011;65076;52.362;6.588;2022-11-20T09:03:54;17.00;;;9.60;;
76259;SDS011;65076;52.362;6.588;2022-11-20T09:06:23;14.70;;;8.68;;
76259;SDS011;65076;52.362;6.588;2022-11-20T09:08:51;12.77;;;9.10;;
76259;SDS011;65076;52.362;6.588;2022-11-20T09:11:19;14.73;;;9.55;;
76259;SDS011;65076;52.362;6.588;2022-11-20T09:13:48;16.20;;;9.93;;
76259;SDS011;65076;52.362;6.588;2022-11-20T09:16:16;12.13;;;9.38;;
76259;SDS011;65076;52.362;6.588;2022-11-20T09:18:46;12.63;;;9.20;;
76259;SDS011;65076;52.362;6.588;2022-11-20T09:21:32;14.45;;;9.63;;
76259;SDS011;65076;52.362;6.588;2022-11-20T09:24:00;13.43;;;9.85;;
76259;SDS011;65076;52.362;6.588;2022-11-20T09:26:28;15.32;;;10.05;;
76259;SDS011;65076;52.362;6.588;2022-11-20T09:28:56;14.60;;;8.98;;
76259;SDS011;65076;52.362;6.588;2022-11-20T09:31:24;16.65;;;9.82;;
76259;SDS011;65076;52.362;6.588;2022-11-20T09:33:54;14.00;;;9.52;;
76259;SDS011;65076;52.362;6.588;2022-11-20T09:36:22;15.85;;;9.90;;
76259;SDS011;65076;52.362;6.588;2022-11-20T09:38:50;15.90;;;10.60;;
76259;SDS011;65076;52.362;6.588;2022-11-20T09:41:35;15.07;;;9.45;;
76259;SDS011;65076;52.362;6.588;2022-11-20T09:44:38;19.02;;;10.45;;
76259;SDS011;65076;52.362;6.588;2022-11-20T09:47:25;16.75;;;10.02;;
76259;SDS011;65076;52.362;6.588;2022-11-20T09:50:19;15.20;;;8.65;;
76259;SDS011;65076;52.362;6.588;2022-11-20T09:53:02;17.15;;;8.55;;
76259;SDS011;65076;52.362;6.588;2022-11-20T09:55:40;14.40;;;9.05;;
76259;SDS011;65076;52.362;6.588;2022-11-20T09:58:13;11.95;;;8.63;;
76259;SDS011;65076;52.362;6.588;2022-11-20T10:00:52;16.40;;;9.88;;
76259;SDS011;65076;52.362;6.588;2022-11-20T10:03:26;15.35;;;9.73;;
76259;SDS011;65076;52.362;6.588;2022-11-20T10:06:11;12.98;;;8.65;;
76259;SDS011;65076;52.362;6.588;2022-11-20T10:08:45;15.65;;;9.48;;
76259;SDS011;65076;52.362;6.588;2022-11-20T10:11:27;13.40;;;8.82;;
76259;SDS011;65076;52.362;6.588;2022-11-20T10:14:16;15.73;;;9.43;;
76259;SDS011;65076;52.362;6.588;2022-11-20T10:16:57;17.08;;;10.60;;
76259;SDS011;65076;52.362;6.588;2022-11-20T10:19:43;15.30;;;9.20;;
76259;SDS011;65076;52.362;6.588;2022-11-20T10:22:35;14.30;;;9.13;;
76259;SDS011;65076;52.362;6.588;2022-11-20T10:25:34;14.57;;;8.68;;
76259;SDS011;65076;52.362;6.588;2022-11-20T10:28:11;14.82;;;9.15;;
76259;SDS011;65076;52.362;6.588;2022-11-20T10:30:57;14.35;;;8.68;;
76259;SDS011;65076;52.362;6.588;2022-11-20T10:33:29;14.77;;;8.93;;
76259;SDS011;65076;52.362;6.588;2022-11-20T10:36:26;14.15;;;8.02;;
76259;SDS011;65076;52.362;6.588;2022-11-20T10:39:03;14.57;;;8.77;;
76259;SDS011;65076;52.362;6.588;2022-11-20T10:41:41;12.40;;;7.75;;
76259;SDS011;65076;52.362;6.588;2022-11-20T10:44:15;14.80;;;9.13;;
76259;SDS011;65076;52.362;6.588;2022-11-20T10:47:11;12.32;;;8.90;;
76259;SDS011;65076;52.362;6.588;2022-11-20T10:49:42;12.27;;;7.63;;
76259;SDS011;65076;52.362;6.588;2022-11-20T10:52:17;13.85;;;8.93;;
76259;SDS011;65076;52.362;6.588;2022-11-20T10:55:01;14.23;;;8.40;;
76259;SDS011;65076;52.362;6.588;2022-11-20T10:57:47;15.73;;;9.07;;
76259;SDS011;65076;52.362;6.588;2022-11-20T11:00:23;15.75;;;8.88;;
76259;SDS011;65076;52.362;6.588;2022-11-20T11:02:52;13.88;;;9.10;;
76259;SDS011;65076;52.362;6.588;2022-11-20T11:05:31;15.85;;;8.98;;
76259;SDS011;65076;52.362;6.588;2022-11-20T11:08:08;12.38;;;8.05;;
76259;SDS011;65076;52.362;6.588;2022-11-20T11:10:44;13.40;;;8.73;;
76259;SDS011;65076;52.362;6.588;2022-11-20T11:13:19;14.77;;;8.52;;
76259;SDS011;65076;52.362;6.588;2022-11-20T11:15:49;15.02;;;8.93;;
76259;SDS011;65076;52.362;6.588;2022-11-20T11:18:24;14.45;;;8.60;;
76259;SDS011;65076;52.362;6.588;2022-11-20T11:20:54;14.35;;;8.88;;
76259;SDS011;65076;52.362;6.588;2022-11-20T11:26:19;13.95;;;8.43;;
76259;SDS011;65076;52.362;6.588;2022-11-20T11:28:53;15.07;;;9.02;;
76259;SDS011;65076;52.362;6.588;2022-11-20T11:31:23;13.27;;;8.52;;
76259;SDS011;65076;52.362;6.588;2022-11-20T11:34:03;13.95;;;8.63;;
76259;SDS011;65076;52.362;6.588;2022-11-20T11:36:33;12.40;;;8.93;;
76259;SDS011;65076;52.362;6.588;2022-11-20T11:39:03;13.57;;;8.40;;
76259;SDS011;65076;52.362;6.588;2022-11-20T11:41:40;15.13;;;8.68;;
76259;SDS011;65076;52.362;6.588;2022-11-20T11:44:14;16.83;;;9.10;;
76259;SDS011;65076;52.362;6.588;2022-11-20T11:47:03;14.48;;;9.45;;
76259;SDS011;65076;52.362;6.588;2022-11-20T11:49:37;12.63;;;7.55;;
76259;SDS011;65076;52.362;6.588;2022-11-20T11:52:05;12.02;;;7.95;;
76259;SDS011;65076;52.362;6.588;2022-11-20T11:54:41;14.55;;;9.07;;
76259;SDS011;65076;52.362;6.588;2022-11-20T11:57:20;12.45;;;7.97;;
76259;SDS011;65076;52.362;6.588;2022-11-20T12:00:00;16.40;;;8.80;;
76259;SDS011;65076;52.362;6.588;2022-11-20T12:02:35;11.13;;;7.38;;
76259;SDS011;65076;52.362;6.588;2022-11-20T12:05:17;11.60;;;7.45;;
76259;SDS011;65076;52.362;6.588;2022-11-20T12:07:50;12.30;;;7.18;;
76259;SDS011;65076;52.362;6.588;2022-11-20T12:10:28;12.27;;;7.50;;
76259;SDS011;65076;52.362;6.588;2022-11-20T12:13:15;13.77;;;7.82;;
76259;SDS011;65076;52.362;6.588;2022-11-20T12:15:56;10.73;;;6.70;;
76259;SDS011;65076;52.362;6.588;2022-11-20T12:18:25;12.52;;;7.30;;
76259;SDS011;65076;52.362;6.588;2022-11-20T12:20:55;11.98;;;8.02;;
76259;SDS011;65076;52.362;6.588;2022-11-20T12:23:42;8.95;;;6.35;;
76259;SDS011;65076;52.362;6.588;2022-11-20T12:26:34;12.75;;;7.85;;
76259;SDS011;65076;52.362;6.588;2022-11-20T12:29:26;14.18;;;7.95;;
76259;SDS011;65076;52.362;6.588;2022-11-20T12:32:19;11.70;;;6.78;;
76259;SDS011;65076;52.362;6.588;2022-11-20T12:38:03;9.52;;;6.10;;
76259;SDS011;65076;52.362;6.588;2022-11-20T12:41:04;11.68;;;7.43;;
76259;SDS011;65076;52.362;6.588;2022-11-20T12:44:10;11.88;;;7.25;;
76259;SDS011;65076;52.362;6.588;2022-11-20T12:47:16;14.15;;;7.93;;
76259;SDS011;65076;52.362;6.588;2022-11-20T12:49:56;10.23;;;6.75;;
76259;SDS011;65076;52.362;6.588;2022-11-20T12:52:41;11.27;;;6.78;;
76259;SDS011;65076;52.362;6.588;2022-11-20T12:55:24;11.50;;;7.30;;
76259;SDS011;65076;52.362;6.588;2022-11-20T12:58:05;9.63;;;6.00;;
76259;SDS011;65076;52.362;6.588;2022-11-20T13:00:43;11.68;;;8.48;;
76259;SDS011;65076;52.362;6.588;2022-11-20T13:03:43;11.48;;;7.88;;
76259;SDS011;65076;52.362;6.588;2022-11-20T13:06:21;13.68;;;7.47;;
76259;SDS011;65076;52.362;6.588;2022-11-20T13:08:50;9.32;;;6.72;;
76259;SDS011;65076;52.362;6.588;2022-11-20T13:11:24;12.20;;;8.30;;
76259;SDS011;65076;52.362;6.588;2022-11-20T13:14:09;11.20;;;6.75;;
76259;SDS011;65076;52.362;6.588;2022-11-20T13:16:54;12.35;;;7.60;;
76259;SDS011;65076;52.362;6.588;2022-11-20T13:19:33;9.77;;;6.93;;
76259;SDS011;65076;52.362;6.588;2022-11-20T13:22:02;12.20;;;7.45;;
76259;SDS011;65076;52.362;6.588;2022-11-20T13:24:31;10.95;;;7.55;;
76259;SDS011;65076;52.362;6.588;2022-11-20T13:27:00;9.30;;;6.30;;
76259;SDS011;65076;52.362;6.588;2022-11-20T13:29:32;10.43;;;6.82;;
76259;SDS011;65076;52.362;6.588;2022-11-20T13:32:02;10.60;;;6.53;;
76259;SDS011;65076;52.362;6.588;2022-11-20T13:34:35;12.75;;;7.70;;
76259;SDS011;65076;52.362;6.588;2022-11-20T13:37:03;11.65;;;7.03;;
76259;SDS011;65076;52.362;6.588;2022-11-20T13:39:31;9.02;;;5.90;;
76259;SDS011;65076;52.362;6.588;2022-11-20T13:42:02;12.02;;;6.75;;
76259;SDS011;65076;52.362;6.588;2022-11-20T13:44:50;10.90;;;6.60;;
76259;SDS011;65076;52.362;6.588;2022-11-20T13:47:23;10.40;;;6.60;;
76259;SDS011;65076;52.362;6.588;2022-11-20T13:49:54;9.13;;;7.10;;
76259;SDS011;65076;52.362;6.588;2022-11-20T13:52:33;12.05;;;7.60;;
76259;SDS011;65076;52.362;6.588;2022-11-20T13:55:22;11.05;;;6.80;;
76259;SDS011;65076;52.362;6.588;2022-11-20T13:58:05;9.70;;;6.53;;
76259;SDS011;65076;52.362;6.588;2022-11-20T14:00:58;9.43;;;6.80;;
76259;SDS011;65076;52.362;6.588;2022-11-20T14:03:37;11.93;;;6.95;;
76259;SDS011;65076;52.362;6.588;2022-11-20T14:06:29;12.48;;;7.93;;
76259;SDS011;65076;52.362;6.588;2022-11-20T14:09:01;12.38;;;7.20;;
76259;SDS011;65076;52.362;6.588;2022-11-20T14:11:29;10.20;;;7.07;;
76259;SDS011;65076;52.362;6.588;2022-11-20T14:14:00;11.95;;;6.43;;
76259;SDS011;65076;52.362;6.588;2022-11-20T14:16:31;10.80;;;6.90;;
76259;SDS011;65076;52.362;6.588;2022-11-20T14:22:09;13.05;;;8.10;;
76259;SDS011;65076;52.362;6.588;2022-11-20T14:24:45;23.95;;;12.63;;
76259;SDS011;65076;52.362;6.588;2022-11-20T14:27:14;13.27;;;7.57;;
76259;SDS011;65076;52.362;6.588;2022-11-20T14:29:46;12.60;;;8.15;;
76259;SDS011;65076;52.362;6.588;2022-11-20T14:32:17;13.70;;;8.25;;
76259;SDS011;65076;52.362;6.588;2022-11-20T14:34:48;13.40;;;8.57;;
76259;SDS011;65076;52.362;6.588;2022-11-20T14:37:19;14.35;;;8.48;;
76259;SDS011;65076;52.362;6.588;2022-11-20T14:39:52;11.63;;;7.15;;
76259;SDS011;65076;52.362;6.588;2022-11-20T14:42:23;12.63;;;6.95;;
76259;SDS011;65076;52.362;6.588;2022-11-20T14:45:00;10.40;;;6.88;;
76259;SDS011;65076;52.362;6.588;2022-11-20T14:47:29;13.18;;;7.47;;
76259;SDS011;65076;52.362;6.588;2022-11-20T14:49:59;10.18;;;6.72;;
76259;SDS011;65076;52.362;6.588;2022-11-20T14:52:36;14.85;;;7.45;;
76259;SDS011;65076;52.362;6.588;2022-11-20T14:55:04;12.38;;;6.47;;
76259;SDS011;65076;52.362;6.588;2022-11-20T14:57:33;10.98;;;6.38;;
76259;SDS011;65076;52.362;6.588;2022-11-20T15:00:04;11.55;;;7.03;;
76259;SDS011;65076;52.362;6.588;2022-11-20T15:02:45;13.88;;;6.93;;
76259;SDS011;65076;52.362;6.588;2022-11-20T15:05:16;15.68;;;8.35;;
76259;SDS011;65076;52.362;6.588;2022-11-20T15:07:47;16.60;;;8.48;;
76259;SDS011;65076;52.362;6.588;2022-11-20T15:10:20;12.38;;;7.80;;
76259;SDS011;65076;52.362;6.588;2022-11-20T15:12:51;17.25;;;7.68;;
76259;SDS011;65076;52.362;6.588;2022-11-20T15:15:23;13.32;;;8.30;;
76259;SDS011;65076;52.362;6.588;2022-11-20T15:17:58;17.48;;;8.80;;